Time;durP1;ratioP1;P1;durP2;ratioP2;P2;SDS_P1;SDS_P2;PMS_P1;PMS_P2;Temp;Humidity;BMP_temperature;BMP_pressure;BME280_temperature;BME280_humidity;BME280_pressure;Samples;Min_cycle;Max_cycle;Signal;HPM_P1;HPM_P2
2021/03/14 00:00:41;;;;;;;;;;;5.10;99.90;;;;;;5126462;23;10000311;-69
2021/03/14 00:03:07;;;;;;;;;;;5.10;99.90;;;;;;5016215;23;20020;-70
2021/03/14 00:05:32;;;;;;;;;;;5.10;99.90;;;;;;4938196;28;19997;-70
2021/03/14 00:07:58;;;;;;;;;;;5.10;99.90;;;;;;4970050;28;19965;-70
2021/03/14 00:10:24;;;;;;;;;;;5.10;99.90;;;;;;4970029;28;19925;-70
2021/03/14 00:12:52;;;;;;;;;;;5.10;99.90;;;;;;4956354;28;19918;-70
2021/03/14 00:15:23;;;;;;;;;;;5.10;99.90;;;;;;4950506;28;20335;-70
2021/03/14 00:17:49;;;;;;;;;;;5.10;99.90;;;;;;4948935;28;19954;-70
2021/03/14 00:20:15;;;;;;;;;;;5.00;99.90;;;;;;4962043;28;20117;-70
2021/03/14 00:22:40;;;;;;;;;;;5.00;99.90;;;;;;4948029;28;19918;-70
2021/03/14 00:25:08;;;;;;;;;;;4.90;99.90;;;;;;4957551;28;19921;-70
2021/03/14 00:27:36;;;;;;;;;;;4.90;99.90;;;;;;4939166;28;20431;-70
2021/03/14 00:30:05;;;;;;;;;;;4.80;99.90;;;;;;4958105;28;19917;-71
2021/03/14 00:32:30;;;;;;;;;;;4.90;99.90;;;;;;4947924;28;19917;-70
2021/03/14 00:34:56;;;;;;;;;;;4.90;99.90;;;;;;4957887;28;19938;-70
2021/03/14 00:37:22;;;;;;;;;;;4.90;99.90;;;;;;4957559;28;19984;-70
2021/03/14 00:39:47;;;;;;;;;;;4.90;99.90;;;;;;4956552;28;19918;-70
2021/03/14 00:42:13;;;;;;;;;;;4.80;99.90;;;;;;4947864;28;19996;-70
2021/03/14 00:44:43;;;;;;;;;;;4.80;99.90;;;;;;4956729;28;19910;-70
2021/03/14 00:47:11;;;;;;;;;;;4.80;99.90;;;;;;4957442;28;20146;-70
2021/03/14 00:49:38;;;;;;;;;;;4.80;99.90;;;;;;4956090;28;19914;-70
2021/03/14 00:52:04;;;;;;;;;;;4.90;99.90;;;;;;4957624;28;19918;-70
2021/03/14 00:54:32;;;;;;;;;;;4.90;99.90;;;;;;4956980;28;19918;-70
2021/03/14 00:57:00;;;;;;;;;;;4.90;99.90;;;;;;4937327;28;19918;-70
2021/03/14 00:59:27;;;;;;;;;;;4.90;99.90;;;;;;4943982;28;19933;-70
2021/03/14 01:01:55;;;;;;;;;;;5.00;99.90;;;;;;4955877;28;19980;-69
2021/03/14 01:04:21;;;;;;;;;;;5.00;99.90;;;;;;4957589;28;19913;-70
2021/03/14 01:06:49;;;;;;;;;;;5.00;99.90;;;;;;4938764;28;19922;-70
2021/03/14 01:09:19;;;;;;;;;;;4.90;99.90;;;;;;4956928;28;20013;-70
2021/03/14 01:11:46;;;;;;;;;;;4.90;99.90;;;;;;4956945;28;19930;-70
2021/03/14 01:14:14;;;;;;;;;;;4.80;99.90;;;;;;4958426;28;19949;-70
2021/03/14 01:16:40;;;;;;;;;;;4.80;99.90;;;;;;4937839;28;19918;-70
2021/03/14 01:19:05;;;;;;;;;;;4.80;99.90;;;;;;4938093;28;20383;-70
2021/03/14 01:21:32;;;;;;;;;;;4.80;99.90;;;;;;4945051;28;20449;-70
2021/03/14 01:23:57;;;;;;;;;;;4.80;99.90;;;;;;4957557;28;19929;-70
2021/03/14 01:26:23;;;;;;;;;;;4.80;99.90;;;;;;4941137;28;19918;-70
2021/03/14 01:28:50;;;;;;;;;;;4.80;99.90;;;;;;4957734;28;19914;-69
2021/03/14 01:31:16;;;;;;;;;;;4.80;99.90;;;;;;4947504;28;19973;-70
2021/03/14 01:33:44;;;;;;;;;;;4.80;99.90;;;;;;4957888;28;19918;-70
2021/03/14 01:36:11;;;;;;;;;;;4.80;99.90;;;;;;4957567;28;19945;-70
2021/03/14 01:38:39;;;;;;;;;;;4.80;99.90;;;;;;4957318;28;19914;-70
2021/03/14 01:41:05;;;;;;;;;;;4.90;99.90;;;;;;4957017;28;19989;-70
2021/03/14 01:43:35;;;;;;;;;;;4.90;99.90;;;;;;4957469;28;19924;-70
2021/03/14 01:46:04;;;;;;;;;;;4.90;99.90;;;;;;4956029;28;19924;-70
2021/03/14 01:48:32;;;;;;;;;;;4.90;99.90;;;;;;4944909;28;20537;-70
2021/03/14 01:51:01;;;;;;;;;;;4.90;99.90;;;;;;4936876;28;19918;-70
2021/03/14 01:53:26;;;;;;;;;;;4.90;99.90;;;;;;4956963;28;19972;-70
2021/03/14 01:55:54;;;;;;;;;;;4.80;99.90;;;;;;4955495;28;20009;-71
2021/03/14 01:58:23;;;;;;;;;;;4.80;99.90;;;;;;4937591;28;20017;-70
2021/03/14 02:00:52;;;;;;;;;;;4.80;99.90;;;;;;4927250;28;20380;-70
2021/03/14 02:03:18;;;;;;;;;;;4.80;99.90;;;;;;4952272;28;20002;-70
2021/03/14 02:05:43;;;;;;;;;;;4.80;99.90;;;;;;4957156;28;20300;-70
2021/03/14 02:08:11;;;;;;;;;;;4.80;99.90;;;;;;4938342;28;20584;-70
2021/03/14 02:10:37;;;;;;;;;;;4.80;99.90;;;;;;4944723;28;19918;-69
2021/03/14 02:13:05;;;;;;;;;;;4.80;99.90;;;;;;4956318;28;19960;-70
2021/03/14 02:15:30;;;;;;;;;;;4.80;99.90;;;;;;4937825;28;20021;-69
2021/03/14 02:17:56;;;;;;;;;;;4.80;99.90;;;;;;4936712;28;19921;-70
2021/03/14 02:20:26;;;;;;;;;;;4.80;99.90;;;;;;4957317;28;20021;-70
2021/03/14 02:22:54;;;;;;;;;;;4.70;99.90;;;;;;4956350;28;20008;-70
2021/03/14 02:25:27;;;;;;;;;;;4.70;99.90;;;;;;4927616;28;19918;-70
2021/03/14 02:27:53;;;;;;;;;;;4.60;99.90;;;;;;4937879;28;19914;-70
2021/03/14 02:30:19;;;;;;;;;;;4.50;99.90;;;;;;4937672;28;19925;-70
2021/03/14 02:32:44;;;;;;;;;;;4.50;99.90;;;;;;4936926;28;19918;-70
2021/03/14 02:35:10;;;;;;;;;;;4.40;99.90;;;;;;4955698;28;19918;-70
2021/03/14 02:37:37;;;;;;;;;;;4.40;99.90;;;;;;4921258;28;19914;-70
2021/03/14 02:40:04;;;;;;;;;;;4.30;99.90;;;;;;4955655;28;19956;-70
2021/03/14 02:42:30;;;;;;;;;;;4.30;99.90;;;;;;4956547;28;20347;-70
2021/03/14 02:44:58;;;;;;;;;;;4.30;99.90;;;;;;4955391;28;19918;-70
2021/03/14 02:47:26;;;;;;;;;;;4.30;99.90;;;;;;4927378;28;20016;-70
2021/03/14 02:49:51;;;;;;;;;;;4.20;99.90;;;;;;4936990;28;19969;-70
2021/03/14 02:52:17;;;;;;;;;;;4.20;99.90;;;;;;4955357;28;20409;-70
2021/03/14 02:54:45;;;;;;;;;;;4.10;99.90;;;;;;4955621;28;19957;-70
2021/03/14 02:57:11;;;;;;;;;;;4.10;99.90;;;;;;4938174;28;20004;-70
2021/03/14 02:59:36;;;;;;;;;;;4.10;99.90;;;;;;4936710;28;20693;-70
2021/03/14 03:02:02;;;;;;;;;;;4.10;99.90;;;;;;4936359;28;20478;-70
2021/03/14 03:04:30;;;;;;;;;;;4.00;99.90;;;;;;4942042;28;19929;-70
2021/03/14 03:06:56;;;;;;;;;;;4.00;99.90;;;;;;4936998;28;20470;-71
2021/03/14 03:09:22;;;;;;;;;;;3.90;99.90;;;;;;4955327;28;20329;-70
2021/03/14 03:11:50;;;;;;;;;;;3.90;99.90;;;;;;4944808;28;19918;-70
2021/03/14 03:14:19;;;;;;;;;;;3.90;99.90;;;;;;4958037;28;21867;-70
2021/03/14 03:16:49;;;;;;;;;;;4.00;99.90;;;;;;4939588;28;19929;-70
2021/03/14 03:19:16;;;;;;;;;;;4.00;99.90;;;;;;4941370;28;19956;-70
2021/03/14 03:21:42;;;;;;;;;;;4.00;99.90;;;;;;4960132;28;20356;-71
2021/03/14 03:24:10;;;;;;;;;;;3.90;99.90;;;;;;4939966;28;19918;-70
2021/03/14 03:26:41;;;;;;;;;;;3.90;99.90;;;;;;4959650;28;19918;-70
2021/03/14 03:29:10;;;;;;;;;;;4.00;99.90;;;;;;4942840;28;19914;-70
2021/03/14 03:31:36;;;;;;;;;;;4.00;99.90;;;;;;4923811;28;19914;-71
2021/03/14 03:34:04;;;;;;;;;;;4.00;99.90;;;;;;4940804;28;19969;-70
2021/03/14 03:36:32;;;;;;;;;;;4.10;99.90;;;;;;4940324;28;20267;-70
2021/03/14 03:38:57;;;;;;;;;;;4.00;99.90;;;;;;4959790;28;20362;-70
2021/03/14 03:41:23;;;;;;;;;;;4.00;99.90;;;;;;4959427;28;19922;-70
2021/03/14 03:43:51;;;;;;;;;;;4.10;99.90;;;;;;4941230;28;19924;-71
2021/03/14 03:46:16;;;;;;;;;;;4.10;99.90;;;;;;4941013;28;19961;-70
2021/03/14 03:48:48;;;;;;;;;;;4.20;99.90;;;;;;4939985;28;20073;-70
2021/03/14 03:51:16;;;;;;;;;;;4.10;99.90;;;;;;4959261;28;19924;-70
2021/03/14 03:53:44;;;;;;;;;;;4.10;99.90;;;;;;4959463;28;20332;-70
2021/03/14 03:56:10;;;;;;;;;;;4.10;99.90;;;;;;4958191;28;20017;-70
2021/03/14 03:58:35;;;;;;;;;;;4.20;99.90;;;;;;4958722;28;19918;-70
2021/03/14 04:01:01;;;;;;;;;;;4.20;99.90;;;;;;4939668;28;19973;-70
2021/03/14 04:03:27;;;;;;;;;;;4.20;99.90;;;;;;4958128;28;19933;-70
2021/03/14 04:05:55;;;;;;;;;;;4.30;99.90;;;;;;4939955;28;20009;-70
2021/03/14 04:08:21;;;;;;;;;;;4.30;99.90;;;;;;4922486;28;19918;-70
2021/03/14 04:10:49;;;;;;;;;;;4.30;99.90;;;;;;4944884;28;20009;-70
2021/03/14 04:13:17;;;;;;;;;;;4.30;99.90;;;;;;4959152;28;20665;-70
2021/03/14 04:15:43;;;;;;;;;;;4.30;99.90;;;;;;4939160;28;19965;-70
2021/03/14 04:18:13;;;;;;;;;;;4.30;99.90;;;;;;4959538;28;20055;-70
2021/03/14 04:20:39;;;;;;;;;;;4.40;99.90;;;;;;4940003;28;19937;-70
2021/03/14 04:23:22;;;;;;;;;;;4.30;99.90;;;;;;4939255;28;19922;-70
2021/03/14 04:25:51;;;;;;;;;;;4.30;99.90;;;;;;4938191;28;19918;-70
2021/03/14 04:28:19;;;;;;;;;;;4.40;99.90;;;;;;4923317;28;20296;-70
2021/03/14 04:30:45;;;;;;;;;;;4.40;99.90;;;;;;4939992;28;20524;-70
2021/03/14 04:33:13;;;;;;;;;;;4.30;99.90;;;;;;4939202;28;19914;-70
2021/03/14 04:35:44;;;;;;;;;;;4.40;99.90;;;;;;4939587;28;19914;-70
2021/03/14 04:38:09;;;;;;;;;;;4.50;99.90;;;;;;4940639;28;19925;-70
2021/03/14 04:40:37;;;;;;;;;;;4.50;99.90;;;;;;4937651;28;19921;-70
2021/03/14 04:43:05;;;;;;;;;;;4.50;99.90;;;;;;4939679;28;19953;-70
2021/03/14 04:45:31;;;;;;;;;;;4.50;99.90;;;;;;4958000;28;19925;-70
2021/03/14 04:47:56;;;;;;;;;;;4.50;99.90;;;;;;4943257;28;19914;-70
2021/03/14 04:50:25;;;;;;;;;;;4.50;99.90;;;;;;4938156;28;19929;-70
2021/03/14 04:52:54;;;;;;;;;;;4.50;99.90;;;;;;4942966;28;20025;-70
2021/03/14 04:55:20;;;;;;;;;;;4.50;99.90;;;;;;4929682;28;20009;-70
2021/03/14 04:57:45;;;;;;;;;;;4.50;99.90;;;;;;4957668;28;19918;-70
2021/03/14 05:00:14;;;;;;;;;;;4.60;99.90;;;;;;4958258;28;20344;-70
2021/03/14 05:02:44;;;;;;;;;;;4.60;99.90;;;;;;4958452;28;19929;-70
2021/03/14 05:05:12;;;;;;;;;;;4.60;99.90;;;;;;4945262;28;20009;-70
2021/03/14 05:07:38;;;;;;;;;;;4.60;99.90;;;;;;4926372;28;19965;-70
2021/03/14 05:10:10;;;;;;;;;;;4.50;99.90;;;;;;4939368;28;19949;-70
2021/03/14 05:12:36;;;;;;;;;;;4.50;99.90;;;;;;4957647;28;19914;-70
2021/03/14 05:15:06;;;;;;;;;;;4.50;99.90;;;;;;4937843;28;19918;-69
2021/03/14 05:17:32;;;;;;;;;;;4.50;99.90;;;;;;4958099;28;19929;-70
2021/03/14 05:19:57;;;;;;;;;;;4.40;99.90;;;;;;4956670;28;19977;-70
2021/03/14 05:22:23;;;;;;;;;;;4.40;99.90;;;;;;4958221;28;19926;-70
2021/03/14 05:24:49;;;;;;;;;;;4.40;99.90;;;;;;4956994;28;19918;-70
2021/03/14 05:27:14;;;;;;;;;;;4.40;99.90;;;;;;4938552;28;19918;-70
2021/03/14 05:29:44;;;;;;;;;;;4.30;99.90;;;;;;4938082;28;20032;-70
2021/03/14 05:32:14;;;;;;;;;;;4.30;99.90;;;;;;4923107;28;19914;-70
2021/03/14 05:34:39;;;;;;;;;;;4.30;99.90;;;;;;4957985;28;19921;-70
2021/03/14 05:37:07;;;;;;;;;;;4.30;99.90;;;;;;4957694;28;19914;-70
2021/03/14 05:39:37;;;;;;;;;;;4.30;99.90;;;;;;4957367;28;20348;-71
2021/03/14 05:42:06;;;;;;;;;;;4.20;99.90;;;;;;4955599;28;19914;-70
2021/03/14 05:44:32;;;;;;;;;;;4.30;99.90;;;;;;4923451;28;19917;-70
2021/03/14 05:46:59;;;;;;;;;;;4.20;99.90;;;;;;4921621;28;19941;-71
2021/03/14 05:49:27;;;;;;;;;;;4.20;99.90;;;;;;4957368;28;19940;-71
2021/03/14 05:51:53;;;;;;;;;;;4.20;99.90;;;;;;4937699;28;20056;-70
2021/03/14 05:54:21;;;;;;;;;;;4.20;99.90;;;;;;4937744;28;19920;-70
2021/03/14 05:56:49;;;;;;;;;;;4.20;99.90;;;;;;4937742;28;19918;-71
2021/03/14 05:59:18;;;;;;;;;;;4.20;99.90;;;;;;4943643;28;19918;-70
2021/03/14 06:01:48;;;;;;;;;;;4.20;99.90;;;;;;4956145;28;19918;-70
2021/03/14 06:04:16;;;;;;;;;;;4.30;99.90;;;;;;4939918;28;19985;-70
2021/03/14 06:06:46;;;;;;;;;;;4.30;99.90;;;;;;4945817;28;20391;-70
2021/03/14 06:09:14;;;;;;;;;;;4.20;99.90;;;;;;4957793;28;19918;-70
2021/03/14 06:11:40;;;;;;;;;;;4.30;99.90;;;;;;4955472;28;20086;-70
2021/03/14 06:14:05;;;;;;;;;;;4.30;99.90;;;;;;4937472;28;19922;-70
2021/03/14 06:16:31;;;;;;;;;;;4.30;99.90;;;;;;4936585;28;19914;-70
2021/03/14 06:18:56;;;;;;;;;;;4.40;99.90;;;;;;4937112;28;19922;-70
2021/03/14 06:21:22;;;;;;;;;;;4.40;99.90;;;;;;4936977;28;19941;-70
2021/03/14 06:24:01;;;;;;;;;;;4.40;99.90;;;;;;4941040;28;19918;-71
2021/03/14 06:26:33;;;;;;;;;;;4.40;99.90;;;;;;4956581;28;19922;-70
2021/03/14 06:28:58;;;;;;;;;;;4.40;99.90;;;;;;4956673;28;19914;-70
2021/03/14 06:31:26;;;;;;;;;;;4.30;99.90;;;;;;4956918;28;19937;-70
2021/03/14 06:33:51;;;;;;;;;;;4.30;99.90;;;;;;4956315;28;20021;-70
2021/03/14 06:36:19;;;;;;;;;;;4.20;99.90;;;;;;4955788;28;20041;-70
2021/03/14 06:38:47;;;;;;;;;;;4.20;99.90;;;;;;4955588;28;20391;-70
2021/03/14 06:41:13;;;;;;;;;;;4.30;99.90;;;;;;4956262;28;20068;-70
2021/03/14 06:43:42;;;;;;;;;;;4.30;99.90;;;;;;4955954;28;19913;-70
2021/03/14 06:46:27;;;;;;;;;;;4.20;99.90;;;;;;4937087;28;19910;-70
2021/03/14 06:49:09;;;;;;;;;;;4.20;99.90;;;;;;4955208;28;19914;-70
2021/03/14 06:51:35;;;;;;;;;;;4.20;99.90;;;;;;4944778;28;19914;-70
2021/03/14 06:54:14;;;;;;;;;;;4.20;99.90;;;;;;4936109;28;19918;-70
2021/03/14 06:56:39;;;;;;;;;;;4.20;99.90;;;;;;4937199;28;19924;-70
2021/03/14 06:59:17;;;;;;;;;;;4.20;99.90;;;;;;4955596;28;19918;-70
2021/03/14 07:01:55;;;;;;;;;;;4.10;99.90;;;;;;4935851;28;19928;-70
2021/03/14 07:04:32;;;;;;;;;;;4.10;99.90;;;;;;4955884;28;19914;-71
2021/03/14 07:07:02;;;;;;;;;;;4.10;99.90;;;;;;4955297;28;21901;-70
2021/03/14 07:09:28;;;;;;;;;;;4.10;99.90;;;;;;4936672;28;19976;-70
2021/03/14 07:11:53;;;;;;;;;;;4.20;99.90;;;;;;4955027;28;20292;-70
2021/03/14 07:14:21;;;;;;;;;;;4.20;99.90;;;;;;4920337;28;19918;-70
2021/03/14 07:16:56;;;;;;;;;;;4.20;99.90;;;;;;4943207;28;19953;-70
2021/03/14 07:19:22;;;;;;;;;;;4.30;99.90;;;;;;4956140;28;19918;-71
2021/03/14 07:22:09;;;;;;;;;;;4.30;99.90;;;;;;4954794;28;19925;-70
2021/03/14 07:24:37;;;;;;;;;;;4.30;99.90;;;;;;4956111;28;19929;-70
2021/03/14 07:27:07;;;;;;;;;;;4.40;99.90;;;;;;4955283;28;19925;-70
2021/03/14 07:29:35;;;;;;;;;;;4.40;99.90;;;;;;4939380;28;20348;-70
2021/03/14 07:32:05;;;;;;;;;;;4.40;99.90;;;;;;4943988;28;19914;-71
2021/03/14 07:34:33;;;;;;;;;;;4.40;99.90;;;;;;4938797;28;19968;-70
2021/03/14 07:36:59;;;;;;;;;;;4.50;99.90;;;;;;4955000;28;19918;-70
2021/03/14 07:39:24;;;;;;;;;;;4.50;99.90;;;;;;4955667;28;19925;-70
2021/03/14 07:41:52;;;;;;;;;;;4.50;99.90;;;;;;4955909;28;20388;-70
2021/03/14 07:44:19;;;;;;;;;;;4.60;99.90;;;;;;4941054;28;19914;-70
2021/03/14 07:46:45;;;;;;;;;;;4.60;99.90;;;;;;4937888;28;19914;-70
2021/03/14 07:49:11;;;;;;;;;;;4.70;99.90;;;;;;4937961;28;20332;-70
2021/03/14 07:51:36;;;;;;;;;;;4.70;99.90;;;;;;4955829;28;19914;-70
2021/03/14 07:54:05;;;;;;;;;;;4.80;99.90;;;;;;4935437;28;20804;-70
2021/03/14 07:56:33;;;;;;;;;;;4.90;99.90;;;;;;4940369;28;19941;-70
2021/03/14 07:59:01;;;;;;;;;;;4.90;99.90;;;;;;4935008;28;19918;-70
2021/03/14 08:01:37;;;;;;;;;;;4.90;99.90;;;;;;4573638;28;10000986;-73
2021/03/14 08:04:03;;;;;;;;;;;5.00;99.90;;;;;;4944129;28;19914;-76
2021/03/14 08:06:44;;;;;;;;;;;5.00;99.90;;;;;;4939963;28;19925;-76
2021/03/14 08:09:09;;;;;;;;;;;5.00;99.90;;;;;;4937501;28;19914;-76
2021/03/14 08:11:37;;;;;;;;;;;5.10;99.90;;;;;;4957415;28;19918;-76
2021/03/14 08:14:03;;;;;;;;;;;5.10;99.90;;;;;;4930190;28;19929;-76
2021/03/14 08:16:28;;;;;;;;;;;5.10;99.90;;;;;;4940475;28;20274;-76
2021/03/14 08:18:57;;;;;;;;;;;5.10;99.90;;;;;;4939403;28;19914;-76
2021/03/14 08:21:32;;;;;;;;;;;5.20;99.90;;;;;;4940868;28;20351;-76
2021/03/14 08:24:00;;;;;;;;;;;5.20;99.90;;;;;;4957112;28;19925;-78
2021/03/14 08:26:27;;;;;;;;;;;5.30;99.90;;;;;;4957611;28;19929;-78
2021/03/14 08:28:53;;;;;;;;;;;5.30;99.90;;;;;;4957339;28;19914;-76
2021/03/14 08:31:37;;;;;;;;;;;5.40;99.90;;;;;;4957262;28;19914;-76
2021/03/14 08:34:03;;;;;;;;;;;5.40;99.90;;;;;;4958383;28;19929;-76
2021/03/14 08:36:36;;;;;;;;;;;5.50;99.90;;;;;;4956418;28;19918;-76
2021/03/14 08:39:01;;;;;;;;;;;5.50;99.90;;;;;;4959706;28;19914;-76
2021/03/14 08:41:28;;;;;;;;;;;5.50;99.90;;;;;;4958073;28;20367;-78
2021/03/14 08:44:01;;;;;;;;;;;5.50;99.90;;;;;;4938379;28;19925;-76
2021/03/14 08:46:45;;;;;;;;;;;5.60;99.90;;;;;;4938351;28;19926;-76
2021/03/14 08:49:11;;;;;;;;;;;5.50;99.90;;;;;;4944973;28;19927;-75
2021/03/14 08:51:37;;;;;;;;;;;5.50;99.90;;;;;;4957497;28;20340;-76
2021/03/14 08:54:02;;;;;;;;;;;5.40;99.90;;;;;;4945766;28;19968;-77
2021/03/14 08:56:28;;;;;;;;;;;5.40;99.90;;;;;;4968527;28;19941;-77
2021/03/14 08:59:09;;;;;;;;;;;5.50;99.90;;;;;;4946367;28;20049;-79
2021/03/14 09:01:35;;;;;;;;;;;5.60;99.90;;;;;;4937256;28;19922;-75
2021/03/14 09:04:10;;;;;;;;;;;5.60;99.90;;;;;;4953934;28;19918;-78
2021/03/14 09:06:38;;;;;;;;;;;5.60;99.90;;;;;;4956793;28;19922;-75
2021/03/14 09:09:04;;;;;;;;;;;5.60;99.90;;;;;;4938080;28;19972;-75
2021/03/14 09:11:37;;;;;;;;;;;5.70;99.90;;;;;;4943136;28;20059;-75
2021/03/14 09:14:18;;;;;;;;;;;5.70;99.90;;;;;;4942372;28;19922;-77
2021/03/14 09:16:44;;;;;;;;;;;5.70;99.90;;;;;;4957154;28;20517;-77
2021/03/14 09:19:09;;;;;;;;;;;5.80;99.90;;;;;;4938257;28;19959;-77
2021/03/14 09:22:01;;;;;;;;;;;5.80;99.90;;;;;;4957344;28;19926;-77
2021/03/14 09:24:26;;;;;;;;;;;5.80;99.90;;;;;;4954040;28;19924;-77
2021/03/14 09:26:55;;;;;;;;;;;5.80;99.90;;;;;;4956037;28;19914;-77
2021/03/14 09:29:38;;;;;;;;;;;5.80;99.90;;;;;;4937087;28;19918;-76
2021/03/14 09:32:13;;;;;;;;;;;5.80;99.90;;;;;;4957394;28;19985;-76
2021/03/14 09:34:39;;;;;;;;;;;5.90;99.90;;;;;;4944606;28;19914;-75
2021/03/14 09:37:07;;;;;;;;;;;6.00;99.90;;;;;;4937230;28;20352;-76
2021/03/14 09:39:32;;;;;;;;;;;6.00;99.90;;;;;;4945330;28;19914;-76
2021/03/14 09:41:58;;;;;;;;;;;6.00;99.90;;;;;;4956979;28;19929;-77
2021/03/14 09:44:25;;;;;;;;;;;6.00;99.90;;;;;;4956801;28;20582;-78
2021/03/14 09:46:57;;;;;;;;;;;6.10;99.90;;;;;;4957088;28;20263;-80
2021/03/14 09:49:22;;;;;;;;;;;6.10;99.90;;;;;;4939876;28;19929;-75
2021/03/14 09:51:56;;;;;;;;;;;6.20;99.90;;;;;;4957368;28;19918;-76
2021/03/14 09:54:22;;;;;;;;;;;6.20;99.90;;;;;;4944933;28;19914;-76
2021/03/14 09:56:49;;;;;;;;;;;6.30;99.90;;;;;;4966454;28;19914;-75
2021/03/14 09:59:18;;;;;;;;;;;6.30;99.90;;;;;;4948988;28;19914;-76
2021/03/14 10:01:47;;;;;;;;;;;6.30;99.90;;;;;;4965567;28;20379;-76
2021/03/14 10:04:15;;;;;;;;;;;6.30;99.10;;;;;;4967730;28;20009;-76
2021/03/14 10:06:43;;;;;;;;;;;6.30;99.90;;;;;;4964255;28;20362;-76
2021/03/14 10:09:21;;;;;;;;;;;6.30;99.90;;;;;;4964347;28;19910;-76
2021/03/14 10:11:47;;;;;;;;;;;6.30;99.90;;;;;;4963185;28;19922;-76
2021/03/14 10:14:16;;;;;;;;;;;6.30;99.90;;;;;;4964400;28;19996;-76
2021/03/14 10:16:42;;;;;;;;;;;6.40;99.90;;;;;;4947669;28;19921;-76
2021/03/14 10:19:07;;;;;;;;;;;6.40;99.90;;;;;;4946958;28;19914;-76
2021/03/14 10:21:37;;;;;;;;;;;6.40;96.50;;;;;;4966975;28;19918;-75
2021/03/14 10:24:22;;;;;;;;;;;6.40;99.90;;;;;;4947078;28;21660;-75
2021/03/14 10:26:51;;;;;;;;;;;6.40;99.10;;;;;;4964696;28;19925;-76
2021/03/14 10:29:16;;;;;;;;;;;6.40;96.20;;;;;;4945610;28;20741;-76
2021/03/14 10:31:42;;;;;;;;;;;6.40;97.60;;;;;;4948577;28;20002;-76
2021/03/14 10:34:08;;;;;;;;;;;6.40;98.90;;;;;;4949641;28;19921;-76
2021/03/14 10:36:36;;;;;;;;;;;6.40;99.70;;;;;;4935285;28;19910;-76
2021/03/14 10:39:02;;;;;;;;;;;6.40;99.90;;;;;;4965250;28;19918;-76
2021/03/14 10:41:27;;;;;;;;;;;6.40;99.90;;;;;;4966284;28;20247;-76
2021/03/14 10:43:58;;;;;;;;;;;6.40;99.90;;;;;;4965440;28;19918;-76
2021/03/14 10:46:53;;;;;;;;;;;6.40;99.90;;;;;;4949206;28;19910;-76
2021/03/14 10:49:29;;;;;;;;;;;6.40;99.90;;;;;;4941124;28;19921;-76
2021/03/14 10:51:55;;;;;;;;;;;6.50;99.90;;;;;;4967203;28;20188;-76
2021/03/14 10:54:21;;;;;;;;;;;6.50;99.90;;;;;;4949450;28;19968;-74
2021/03/14 10:56:50;;;;;;;;;;;6.50;99.90;;;;;;4963211;28;20442;-77
2021/03/14 10:59:22;;;;;;;;;;;6.50;99.90;;;;;;4946984;28;19914;-79
2021/03/14 11:01:53;;;;;;;;;;;6.60;99.90;;;;;;4964236;28;20049;-78
2021/03/14 11:04:27;;;;;;;;;;;6.70;99.90;;;;;;4948111;28;19911;-76
2021/03/14 11:06:54;;;;;;;;;;;6.60;99.90;;;;;;4963312;28;19921;-76
2021/03/14 11:09:19;;;;;;;;;;;6.70;99.90;;;;;;4962966;28;20332;-76
2021/03/14 11:11:45;;;;;;;;;;;6.70;99.90;;;;;;4964093;28;19964;-76
2021/03/14 11:14:26;;;;;;;;;;;6.70;99.90;;;;;;4929296;28;20017;-76
2021/03/14 11:17:03;;;;;;;;;;;6.70;99.90;;;;;;4943285;28;19949;-77
2021/03/14 11:19:29;;;;;;;;;;;6.80;99.90;;;;;;4965720;28;19917;-77
2021/03/14 11:21:55;;;;;;;;;;;6.80;99.90;;;;;;4961967;28;19934;-75
2021/03/14 11:24:20;;;;;;;;;;;6.90;99.90;;;;;;4964148;28;20374;-75
2021/03/14 11:26:46;;;;;;;;;;;6.90;99.90;;;;;;4947676;28;19906;-77
2021/03/14 11:29:16;;;;;;;;;;;6.80;99.90;;;;;;4966094;28;20228;-77
2021/03/14 11:31:42;;;;;;;;;;;6.80;99.90;;;;;;4966379;28;19969;-78
2021/03/14 11:34:07;;;;;;;;;;;6.90;99.90;;;;;;4965111;28;19910;-74
2021/03/14 11:36:35;;;;;;;;;;;6.90;99.90;;;;;;4969744;28;19941;-74
2021/03/14 11:39:03;;;;;;;;;;;6.90;99.90;;;;;;4957178;28;19936;-75
2021/03/14 11:41:31;;;;;;;;;;;6.90;99.90;;;;;;4969666;28;19914;-77
2021/03/14 11:43:56;;;;;;;;;;;6.80;99.90;;;;;;4968184;28;19910;-77
2021/03/14 11:46:22;;;;;;;;;;;6.70;99.90;;;;;;4968505;28;20005;-75
2021/03/14 11:48:47;;;;;;;;;;;6.70;99.90;;;;;;4964597;28;19914;-75
2021/03/14 11:51:13;;;;;;;;;;;6.70;99.90;;;;;;4966220;28;19914;-75
2021/03/14 11:53:40;;;;;;;;;;;6.80;99.90;;;;;;4657330;28;10000652;-74
2021/03/14 11:56:05;;;;;;;;;;;6.80;99.90;;;;;;4963933;28;19917;-75
2021/03/14 11:58:31;;;;;;;;;;;6.80;99.90;;;;;;4967500;28;19910;-76
2021/03/14 12:00:56;;;;;;;;;;;6.70;99.90;;;;;;4947323;28;20579;-73
2021/03/14 12:03:22;;;;;;;;;;;6.60;99.90;;;;;;4966895;28;20489;-75
2021/03/14 12:05:50;;;;;;;;;;;6.70;99.90;;;;;;4960943;28;20028;-75
2021/03/14 12:08:18;;;;;;;;;;;6.70;99.90;;;;;;4936241;28;20454;-75
2021/03/14 12:10:43;;;;;;;;;;;6.70;99.90;;;;;;4957121;28;19973;-76
2021/03/14 12:13:11;;;;;;;;;;;6.70;99.90;;;;;;4959774;28;20343;-74
2021/03/14 12:15:37;;;;;;;;;;;6.70;99.90;;;;;;4965567;28;20112;-77
2021/03/14 12:18:02;;;;;;;;;;;6.70;99.90;;;;;;4963125;28;20569;-76
2021/03/14 12:20:28;;;;;;;;;;;6.70;99.90;;;;;;4943496;28;19925;-74
2021/03/14 12:22:54;;;;;;;;;;;6.70;99.90;;;;;;4964611;28;19974;-74
2021/03/14 12:25:20;;;;;;;;;;;6.80;99.90;;;;;;4964685;28;21960;-76
2021/03/14 12:27:46;;;;;;;;;;;6.80;99.90;;;;;;4949180;28;20430;-76
2021/03/14 12:30:12;;;;;;;;;;;6.80;99.90;;;;;;4966895;28;19925;-76
2021/03/14 12:32:37;;;;;;;;;;;6.80;99.90;;;;;;4930056;28;20638;-78
2021/03/14 12:35:03;;;;;;;;;;;6.80;99.90;;;;;;4949585;28;19906;-80
2021/03/14 12:37:31;;;;;;;;;;;6.90;99.90;;;;;;4964518;28;19949;-80
2021/03/14 12:39:56;;;;;;;;;;;6.90;99.90;;;;;;4965112;28;19980;-75
2021/03/14 12:42:22;;;;;;;;;;;6.90;99.90;;;;;;4965644;28;19918;-77
2021/03/14 12:44:50;;;;;;;;;;;6.90;99.90;;;;;;4967149;28;19914;-75
2021/03/14 12:47:16;;;;;;;;;;;6.90;99.90;;;;;;4620436;28;10000511;-76
2021/03/14 12:49:41;;;;;;;;;;;6.90;99.90;;;;;;4947711;28;20012;-76
2021/03/14 12:52:07;;;;;;;;;;;7.00;99.90;;;;;;4944571;28;19914;-76
2021/03/14 12:54:35;;;;;;;;;;;7.00;99.90;;;;;;4963611;28;20406;-76
2021/03/14 12:57:03;;;;;;;;;;;7.00;99.90;;;;;;4962959;28;20359;-76
2021/03/14 12:59:28;;;;;;;;;;;7.00;99.90;;;;;;4964640;28;19925;-76
2021/03/14 13:01:54;;;;;;;;;;;7.00;99.90;;;;;;4963767;28;19915;-77
2021/03/14 13:04:19;;;;;;;;;;;7.00;99.90;;;;;;4945672;28;19914;-76
2021/03/14 13:06:49;;;;;;;;;;;6.90;99.90;;;;;;4961760;28;20266;-76
2021/03/14 13:09:15;;;;;;;;;;;7.00;99.90;;;;;;4967534;28;19917;-76
2021/03/14 13:11:40;;;;;;;;;;;6.90;99.90;;;;;;4965970;28;20433;-76
2021/03/14 13:14:06;;;;;;;;;;;6.90;99.90;;;;;;4950150;28;20007;-76
2021/03/14 13:16:31;;;;;;;;;;;6.90;99.90;;;;;;4949288;28;19910;-76
2021/03/14 13:18:57;;;;;;;;;;;6.90;99.90;;;;;;4966518;28;19917;-76
2021/03/14 13:21:22;;;;;;;;;;;6.80;99.90;;;;;;4962564;28;19921;-76
2021/03/14 13:23:48;;;;;;;;;;;6.80;99.90;;;;;;4950267;28;20236;-77
2021/03/14 13:26:13;;;;;;;;;;;7.00;99.90;;;;;;4965261;28;20064;-76
2021/03/14 13:28:41;;;;;;;;;;;7.10;99.90;;;;;;4966145;28;20004;-77
2021/03/14 13:31:07;;;;;;;;;;;7.30;99.90;;;;;;4965535;28;19920;-77
2021/03/14 13:33:32;;;;;;;;;;;7.60;99.90;;;;;;4949547;28;19914;-77
2021/03/14 13:35:58;;;;;;;;;;;7.70;99.90;;;;;;4967672;28;19910;-77
2021/03/14 13:38:23;;;;;;;;;;;7.80;99.90;;;;;;4966893;28;19918;-77
2021/03/14 13:40:50;;;;;;;;;;;7.90;99.90;;;;;;4966276;28;19914;-76
2021/03/14 13:43:15;;;;;;;;;;;7.90;99.90;;;;;;4967433;28;19949;-77
2021/03/14 13:45:43;;;;;;;;;;;8.00;99.90;;;;;;4966670;28;19910;-76
2021/03/14 13:48:11;;;;;;;;;;;8.00;99.90;;;;;;4967308;28;19914;-76
2021/03/14 13:50:36;;;;;;;;;;;8.00;99.90;;;;;;4967279;28;19914;-76
2021/03/14 13:53:02;;;;;;;;;;;8.00;99.90;;;;;;4966932;28;19937;-76
2021/03/14 13:55:28;;;;;;;;;;;8.00;99.90;;;;;;4966841;28;19946;-77
2021/03/14 13:57:53;;;;;;;;;;;8.00;99.90;;;;;;4948498;28;19937;-76
2021/03/14 14:00:19;;;;;;;;;;;8.00;99.90;;;;;;4967453;28;20009;-76
2021/03/14 14:02:46;;;;;;;;;;;8.00;99.90;;;;;;4950084;28;20016;-76
2021/03/14 14:05:14;;;;;;;;;;;8.00;99.90;;;;;;4965607;28;20343;-76
2021/03/14 14:07:40;;;;;;;;;;;8.00;99.90;;;;;;4964418;28;20745;-76
2021/03/14 14:10:06;;;;;;;;;;;8.00;99.90;;;;;;4947872;28;19969;-77
2021/03/14 14:12:34;;;;;;;;;;;8.00;99.90;;;;;;4936482;28;19933;-77
2021/03/14 14:14:59;;;;;;;;;;;7.90;99.90;;;;;;4964388;28;19914;-77
2021/03/14 14:17:25;;;;;;;;;;;7.90;99.90;;;;;;4959245;28;19937;-76
2021/03/14 14:19:55;;;;;;;;;;;7.90;99.90;;;;;;4964504;28;19937;-76
2021/03/14 14:22:21;;;;;;;;;;;7.90;99.90;;;;;;4967009;28;19956;-76
2021/03/14 14:24:48;;;;;;;;;;;7.90;99.90;;;;;;4947877;28;19952;-76
2021/03/14 14:27:16;;;;;;;;;;;7.80;99.90;;;;;;4964647;28;19921;-77
2021/03/14 14:29:44;;;;;;;;;;;7.80;99.90;;;;;;4946576;28;19964;-77
2021/03/14 14:32:12;;;;;;;;;;;7.60;99.90;;;;;;4964527;28;20003;-77